createdAt,value
2024-02-28T00:00:29.699Z,13.40
2024-02-28T00:01:28.611Z,13.73
2024-02-28T00:02:25.735Z,13.18
2024-02-28T00:03:25.349Z,13.05
2024-02-28T00:04:23.307Z,13.02
2024-02-28T00:05:21.023Z,13.10
2024-02-28T00:06:22.732Z,13.23
2024-02-28T00:07:20.775Z,12.82
2024-02-28T00:08:20.991Z,12.18
2024-02-28T00:09:18.261Z,12.73
2024-02-28T00:10:15.922Z,12.05
2024-02-28T00:11:14.157Z,12.70
2024-02-28T00:12:11.572Z,12.63
2024-02-28T00:13:14.843Z,12.77
2024-02-28T00:14:18.724Z,12.98
2024-02-28T00:15:17.458Z,13.27
2024-02-28T00:16:14.965Z,12.82
2024-02-28T00:17:17.504Z,13.50
2024-02-28T00:18:16.340Z,11.98
2024-02-28T00:19:14.313Z,12.05
2024-02-28T00:20:13.143Z,12.13
2024-02-28T00:21:10.707Z,12.15
2024-02-28T00:22:08.217Z,12.90
2024-02-28T00:23:05.851Z,13.25
2024-02-28T00:24:03.164Z,13.10
2024-02-28T00:25:02.529Z,13.38
2024-02-28T00:26:00.050Z,13.13
2024-02-28T00:26:57.683Z,12.65
2024-02-28T00:27:55.587Z,13.02
2024-02-28T00:28:53.067Z,12.55
2024-02-28T00:29:50.547Z,12.63
2024-02-28T00:30:48.824Z,12.98
2024-02-28T00:31:46.888Z,14.32
2024-02-28T00:32:44.732Z,12.65
2024-02-28T00:33:42.071Z,12.73
2024-02-28T00:34:39.589Z,13.27
2024-02-28T00:35:39.417Z,12.35
2024-02-28T00:36:48.223Z,13.20
2024-02-28T00:37:53.467Z,13.02
2024-02-28T00:38:51.199Z,13.25
2024-02-28T00:39:49.005Z,13.05
2024-02-28T00:40:46.247Z,12.98
2024-02-28T00:41:43.845Z,12.50
2024-02-28T00:42:41.784Z,12.73
2024-02-28T00:43:39.236Z,12.77
2024-02-28T00:44:36.469Z,12.55
2024-02-28T00:45:36.529Z,13.18
2024-02-28T00:46:34.273Z,12.85
2024-02-28T00:47:31.800Z,12.90
2024-02-28T00:48:29.565Z,13.00
2024-02-28T00:49:27.175Z,12.75
2024-02-28T00:50:24.578Z,12.95
2024-02-28T00:51:22.463Z,12.75
2024-02-28T00:52:20.179Z,11.98
2024-02-28T00:53:17.979Z,12.93
2024-02-28T00:54:15.694Z,12.48
2024-02-28T00:55:13.249Z,11.95
2024-02-28T00:56:10.550Z,12.05
2024-02-28T00:57:08.230Z,11.73
2024-02-28T00:58:05.891Z,12.27
2024-02-28T00:59:04.381Z,12.32
2024-02-28T01:00:02.045Z,12.13
2024-02-28T01:00:59.891Z,11.25
2024-02-28T01:01:57.642Z,11.52
2024-02-28T01:02:55.167Z,12.10
2024-02-28T01:03:52.692Z,12.68
2024-02-28T01:04:50.578Z,11.95
2024-02-28T01:05:48.174Z,12.48
2024-02-28T01:06:45.551Z,12.18
2024-02-28T01:07:42.894Z,12.02
2024-02-28T01:08:40.862Z,13.07
2024-02-28T01:09:38.461Z,12.18
2024-02-28T01:10:36.113Z,12.20
2024-02-28T01:11:37.299Z,12.07
2024-02-28T01:12:34.968Z,12.02
2024-02-28T01:13:32.665Z,12.48
2024-02-28T01:14:31.283Z,12.10
2024-02-28T01:15:29.284Z,12.15
2024-02-28T01:16:29.361Z,12.55
2024-02-28T01:17:28.366Z,13.55
2024-02-28T01:18:25.977Z,12.70
2024-02-28T01:19:23.535Z,12.55
2024-02-28T01:20:20.977Z,14.57
2024-02-28T01:21:18.887Z,12.70
2024-02-28T01:22:16.510Z,12.35
2024-02-28T01:23:14.070Z,12.45
2024-02-28T01:24:11.504Z,11.27
2024-02-28T01:25:09.299Z,12.77
2024-02-28T01:26:07.712Z,11.57
2024-02-28T01:27:05.139Z,12.25
2024-02-28T01:28:02.808Z,12.55
2024-02-28T01:29:00.323Z,12.70
2024-02-28T01:29:57.887Z,13.07
2024-02-28T01:30:55.291Z,13.27
2024-02-28T01:31:53.216Z,13.02
2024-02-28T01:32:51.027Z,12.77
2024-02-28T01:33:49.323Z,14.07
2024-02-28T01:34:47.353Z,13.55
2024-02-28T01:35:44.871Z,13.35
2024-02-28T01:36:42.799Z,12.93
2024-02-28T01:37:40.575Z,14.40
2024-02-28T01:38:38.270Z,12.73
2024-02-28T01:39:35.639Z,13.85
2024-02-28T01:40:33.221Z,13.57
2024-02-28T01:41:30.702Z,14.02
2024-02-28T01:42:27.889Z,14.07
2024-02-28T01:43:25.424Z,13.30
2024-02-28T01:44:23.299Z,14.25
2024-02-28T01:45:21.187Z,14.02
2024-02-28T01:46:25.561Z,14.38
2024-02-28T01:47:22.801Z,14.30
2024-02-28T01:48:20.492Z,13.85
2024-02-28T01:49:18.959Z,14.93
2024-02-28T01:50:16.643Z,13.82
2024-02-28T01:51:14.614Z,13.93
2024-02-28T01:52:12.566Z,13.68
2024-02-28T01:53:10.943Z,13.82
2024-02-28T01:54:08.534Z,14.80
2024-02-28T01:55:07.802Z,13.07
2024-02-28T01:56:05.581Z,13.38
2024-02-28T01:57:03.824Z,13.10
2024-02-28T01:58:01.512Z,12.63
2024-02-28T01:58:59.850Z,13.68
2024-02-28T01:59:57.736Z,13.88
2024-02-28T02:00:55.642Z,14.30
2024-02-28T02:01:53.273Z,13.48
2024-02-28T02:02:51.141Z,15.57
2024-02-28T02:03:48.706Z,14.48
2024-02-28T02:04:46.493Z,13.88
2024-02-28T02:05:44.727Z,13.70
2024-02-28T02:06:44.903Z,13.93
2024-02-28T02:07:42.472Z,14.32
2024-02-28T02:08:40.432Z,14.15
2024-02-28T02:09:38.398Z,15.93
2024-02-28T02:10:35.931Z,13.93
2024-02-28T02:11:33.889Z,15.68
2024-02-28T02:12:34.326Z,15.32
2024-02-28T02:13:35.052Z,15.05
2024-02-28T02:14:32.531Z,14.75
2024-02-28T02:15:31.886Z,16.30
2024-02-28T02:16:29.511Z,14.82
2024-02-28T02:17:27.200Z,14.90
2024-02-28T02:18:24.813Z,15.43
2024-02-28T02:19:23.149Z,14.95
2024-02-28T02:20:22.063Z,14.85
2024-02-28T02:21:22.511Z,14.02
2024-02-28T02:22:21.404Z,14.65
2024-02-28T02:23:19.036Z,14.93
2024-02-28T02:24:16.580Z,15.02
2024-02-28T02:25:14.831Z,14.87
2024-02-28T02:26:12.493Z,14.95
2024-02-28T02:27:09.881Z,14.13
2024-02-28T02:28:07.566Z,15.70
2024-02-28T02:29:05.149Z,14.35
2024-02-28T02:30:03.162Z,14.52
2024-02-28T02:31:00.491Z,14.02
2024-02-28T02:31:58.113Z,14.25
2024-02-28T02:32:55.443Z,15.02
2024-02-28T02:33:52.919Z,14.45
2024-02-28T02:34:50.556Z,14.70
2024-02-28T02:35:48.088Z,14.07
2024-02-28T02:36:45.796Z,14.15
2024-02-28T02:37:49.889Z,14.82
2024-02-28T02:38:47.379Z,14.80
2024-02-28T02:39:45.211Z,14.15
2024-02-28T02:40:42.738Z,14.50
2024-02-28T02:41:40.147Z,15.77
2024-02-28T02:42:37.396Z,13.73
2024-02-28T02:43:35.030Z,15.55
2024-02-28T02:44:32.826Z,14.07
2024-02-28T02:45:30.399Z,14.40
2024-02-28T02:46:27.984Z,14.45
2024-02-28T02:47:25.752Z,14.98
2024-02-28T02:48:23.171Z,15.23
2024-02-28T02:49:20.793Z,15.75
2024-02-28T02:50:19.257Z,15.25
2024-02-28T02:51:18.321Z,14.05
2024-02-28T02:52:16.103Z,15.02
2024-02-28T02:53:14.457Z,14.63
2024-02-28T02:54:12.135Z,15.98
2024-02-28T02:55:10.048Z,15.43
2024-02-28T02:56:08.027Z,16.10
2024-02-28T02:57:05.947Z,15.85
2024-02-28T02:58:03.923Z,15.10
2024-02-28T02:59:01.282Z,14.70
2024-02-28T03:00:04.737Z,14.20
2024-02-28T03:01:03.891Z,14.70
2024-02-28T03:02:08.057Z,14.45
2024-02-28T03:03:07.128Z,14.50
2024-02-28T03:04:04.984Z,13.73
2024-02-28T03:05:02.706Z,13.60
2024-02-28T03:06:00.347Z,14.57
2024-02-28T03:06:57.888Z,14.23
2024-02-28T03:07:55.845Z,13.02
2024-02-28T03:08:53.441Z,13.88
2024-02-28T03:09:51.092Z,13.82
2024-02-28T03:10:48.553Z,15.35
2024-02-28T03:11:46.388Z,14.02
2024-02-28T03:12:44.153Z,13.85
2024-02-28T03:13:41.934Z,14.35
2024-02-28T03:14:39.535Z,14.40
2024-02-28T03:15:36.949Z,13.90
2024-02-28T03:16:39.072Z,14.68
2024-02-28T03:17:36.451Z,13.50
2024-02-28T03:18:34.095Z,13.45
2024-02-28T03:19:31.739Z,13.27
2024-02-28T03:20:29.273Z,13.02
2024-02-28T03:21:26.747Z,12.43
2024-02-28T03:22:24.380Z,13.77
2024-02-28T03:23:22.098Z,13.18
2024-02-28T03:24:19.921Z,13.80
2024-02-28T03:25:17.807Z,12.68
2024-02-28T03:26:15.067Z,13.75
2024-02-28T03:27:12.566Z,13.45
2024-02-28T03:28:10.403Z,13.52
2024-02-28T03:29:07.922Z,13.60
2024-02-28T03:30:05.672Z,13.38
2024-02-28T03:31:03.511Z,12.23
2024-02-28T03:32:00.848Z,13.38
2024-02-28T03:32:58.408Z,11.88
2024-02-28T03:33:56.094Z,12.27
2024-02-28T03:34:53.896Z,12.73
2024-02-28T03:35:51.257Z,12.80
2024-02-28T03:36:49.029Z,12.15
2024-02-28T03:37:46.285Z,13.25
2024-02-28T03:38:43.749Z,12.02
2024-02-28T03:39:41.399Z,14.15
2024-02-28T03:40:38.748Z,13.25
2024-02-28T03:41:36.204Z,12.27
2024-02-28T03:42:33.552Z,12.50
2024-02-28T03:43:31.160Z,12.95
2024-02-28T03:44:28.689Z,12.77
2024-02-28T03:45:26.325Z,12.73
2024-02-28T03:46:23.862Z,12.50
2024-02-28T03:47:23.694Z,13.40
2024-02-28T03:48:21.159Z,13.25
2024-02-28T03:49:18.893Z,13.00
2024-02-28T03:50:16.188Z,13.43
2024-02-28T03:51:13.555Z,12.65
2024-02-28T03:52:10.964Z,13.38
2024-02-28T03:53:08.352Z,12.77
2024-02-28T03:54:07.075Z,13.20
2024-02-28T03:55:04.568Z,13.18
2024-02-28T03:56:02.046Z,12.90
2024-02-28T03:57:00.317Z,12.65
2024-02-28T03:57:57.612Z,11.93
2024-02-28T03:58:55.260Z,11.45
2024-02-28T03:59:52.753Z,11.82
2024-02-28T04:00:50.369Z,11.57
2024-02-28T04:01:47.820Z,12.13
2024-02-28T04:02:45.888Z,11.10
2024-02-28T04:03:43.647Z,12.15
2024-02-28T04:04:41.068Z,11.45
2024-02-28T04:05:38.725Z,11.65
2024-02-28T04:06:39.223Z,12.05
2024-02-28T04:08:37.396Z,11.20
2024-02-28T04:09:36.753Z,11.98
2024-02-28T04:10:34.267Z,11.02
2024-02-28T04:11:31.688Z,12.07
2024-02-28T04:12:29.119Z,11.40
2024-02-28T04:13:26.524Z,11.60
2024-02-28T04:14:23.827Z,11.73
2024-02-28T04:15:21.521Z,11.45
2024-02-28T04:16:19.295Z,11.82
2024-02-28T04:17:16.846Z,11.73
2024-02-28T04:18:14.713Z,11.12
2024-02-28T04:19:12.924Z,11.90
2024-02-28T04:20:13.958Z,11.05
2024-02-28T04:21:11.248Z,10.88
2024-02-28T04:22:08.623Z,11.63
2024-02-28T04:23:06.090Z,11.50
2024-02-28T04:24:03.455Z,10.85
2024-02-28T04:25:00.818Z,11.77
2024-02-28T04:25:58.375Z,11.23
2024-02-28T04:26:56.008Z,12.30
2024-02-28T04:27:53.473Z,12.23
2024-02-28T04:28:51.049Z,11.20
2024-02-28T04:29:48.794Z,12.18
2024-02-28T04:30:46.318Z,11.73
2024-02-28T04:31:44.023Z,11.77
2024-02-28T04:32:41.498Z,11.00
2024-02-28T04:33:39.689Z,11.43
2024-02-28T04:34:38.052Z,12.23
2024-02-28T04:35:35.444Z,11.82
2024-02-28T04:36:33.141Z,12.35
2024-02-28T04:37:30.686Z,12.13
2024-02-28T04:38:28.125Z,12.30
2024-02-28T04:39:25.554Z,12.48
2024-02-28T04:40:23.298Z,12.20
2024-02-28T04:41:20.957Z,12.10
2024-02-28T04:42:18.762Z,12.63
2024-02-28T04:43:16.746Z,12.40
2024-02-28T04:44:14.347Z,12.73
2024-02-28T04:45:12.329Z,12.40
2024-02-28T04:46:09.937Z,12.63
2024-02-28T04:47:07.408Z,12.68
2024-02-28T04:48:05.304Z,12.73
2024-02-28T04:49:02.710Z,13.80
2024-02-28T04:50:00.338Z,12.55
2024-02-28T04:50:58.253Z,13.10
2024-02-28T04:51:56.127Z,12.35
2024-02-28T04:52:53.982Z,12.60
2024-02-28T04:53:51.282Z,11.98
2024-02-28T04:54:48.878Z,13.07
2024-02-28T04:55:46.471Z,12.48
2024-02-28T04:56:44.505Z,12.70
2024-02-28T04:57:42.139Z,13.05
2024-02-28T04:58:39.512Z,12.10
2024-02-28T04:59:36.827Z,13.05
2024-02-28T05:00:34.343Z,11.82
2024-02-28T05:01:33.021Z,12.93
2024-02-28T05:02:30.505Z,13.65
2024-02-28T05:03:27.932Z,12.85
2024-02-28T05:04:25.613Z,12.50
2024-02-28T05:05:23.135Z,12.50
2024-02-28T05:06:20.665Z,13.10
2024-02-28T05:07:18.169Z,12.55
2024-02-28T05:08:15.774Z,12.05
2024-02-28T05:09:13.328Z,12.20
2024-02-28T05:10:11.093Z,12.10
2024-02-28T05:11:08.510Z,12.80
2024-02-28T05:12:06.278Z,12.20
2024-02-28T05:13:05.443Z,12.30
2024-02-28T05:14:02.776Z,13.25
2024-02-28T05:15:00.005Z,12.77
2024-02-28T05:15:57.482Z,13.07
2024-02-28T05:16:54.725Z,13.07
2024-02-28T05:17:56.407Z,13.20
2024-02-28T05:18:53.904Z,13.05
2024-02-28T05:19:51.253Z,12.98
2024-02-28T05:20:48.435Z,13.20
2024-02-28T05:21:46.568Z,14.48
2024-02-28T05:22:44.109Z,13.70
2024-02-28T05:23:42.184Z,13.93
2024-02-28T05:24:39.417Z,14.20
2024-02-28T05:25:36.594Z,12.95
2024-02-28T05:26:36.354Z,12.95
2024-02-28T05:27:33.703Z,13.73
2024-02-28T05:28:40.205Z,12.70
2024-02-28T05:29:37.415Z,14.38
2024-02-28T05:30:38.404Z,13.88
2024-02-28T05:31:38.230Z,13.32
2024-02-28T05:32:35.623Z,14.50
2024-02-28T05:33:32.924Z,14.98
2024-02-28T05:34:30.369Z,13.05
2024-02-28T05:35:27.551Z,12.55
2024-02-28T05:36:26.051Z,14.18
2024-02-28T05:37:23.205Z,14.10
2024-02-28T05:38:20.461Z,13.27
2024-02-28T05:39:17.700Z,13.38
2024-02-28T05:40:15.150Z,12.90
2024-02-28T05:41:12.495Z,12.73
2024-02-28T05:42:10.600Z,13.35
2024-02-28T05:43:08.064Z,13.98
2024-02-28T05:44:05.372Z,14.18
2024-02-28T05:45:02.620Z,13.65
2024-02-28T05:45:59.882Z,13.73
2024-02-28T05:46:57.305Z,14.40
2024-02-28T05:47:54.670Z,13.82
2024-02-28T05:48:52.343Z,14.95
2024-02-28T05:49:49.517Z,13.88
2024-02-28T05:50:47.224Z,13.48
2024-02-28T05:51:44.407Z,13.02
2024-02-28T05:52:44.708Z,13.13
2024-02-28T05:53:44.106Z,13.38
2024-02-28T05:54:42.227Z,12.85
2024-02-28T05:55:39.439Z,14.15
2024-02-28T05:56:36.506Z,13.95
2024-02-28T05:57:33.715Z,13.98
2024-02-28T05:58:31.055Z,14.65
2024-02-28T05:59:28.148Z,13.88
2024-02-28T06:00:25.536Z,14.18
2024-02-28T06:01:22.982Z,14.25
2024-02-28T06:02:20.381Z,12.88
2024-02-28T06:03:17.628Z,12.52
2024-02-28T06:04:15.015Z,13.90
2024-02-28T06:05:12.319Z,13.48
2024-02-28T06:06:09.629Z,13.75
2024-02-28T06:07:08.295Z,14.20
2024-02-28T06:08:06.368Z,13.50
2024-02-28T06:09:04.166Z,13.38
2024-02-28T06:10:01.881Z,13.48
2024-02-28T06:10:59.308Z,13.57
2024-02-28T06:11:59.495Z,12.68
2024-02-28T06:12:58.098Z,13.35
2024-02-28T06:13:55.498Z,15.02
2024-02-28T06:14:52.877Z,12.35
2024-02-28T06:15:50.024Z,13.93
2024-02-28T06:16:50.447Z,13.13
2024-02-28T06:17:47.708Z,13.15
2024-02-28T06:18:44.953Z,13.15
2024-02-28T06:19:42.215Z,14.27
2024-02-28T06:20:39.574Z,14.27
2024-02-28T06:21:36.762Z,12.68
2024-02-28T06:22:34.068Z,12.95
2024-02-28T06:23:31.344Z,13.43
2024-02-28T06:24:28.600Z,12.73
2024-02-28T06:25:26.277Z,12.80
2024-02-28T06:26:23.781Z,13.43
2024-02-28T06:27:20.989Z,13.45
2024-02-28T06:28:18.580Z,14.25
2024-02-28T06:29:16.725Z,13.90
2024-02-28T06:30:14.177Z,14.43
2024-02-28T06:31:16.974Z,14.20
2024-02-28T06:32:14.147Z,15.25
2024-02-28T06:33:11.329Z,15.98
2024-02-28T06:34:09.464Z,15.52
2024-02-28T06:35:09.327Z,15.45
2024-02-28T06:36:07.433Z,15.10
2024-02-28T06:37:05.370Z,15.15
2024-02-28T06:38:03.328Z,14.32
2024-02-28T06:39:00.689Z,14.87
2024-02-28T06:39:58.089Z,15.57
2024-02-28T06:40:55.531Z,14.48
2024-02-28T06:41:53.173Z,13.70
2024-02-28T06:42:50.475Z,14.25
2024-02-28T06:43:47.898Z,14.20
2024-02-28T06:44:45.567Z,12.88
2024-02-28T06:45:42.810Z,13.32
2024-02-28T06:46:40.036Z,12.98
2024-02-28T06:47:39.575Z,13.95
2024-02-28T06:48:37.083Z,12.63
2024-02-28T06:49:34.508Z,13.43
2024-02-28T06:50:32.793Z,13.60
2024-02-28T06:51:30.157Z,13.25
2024-02-28T06:52:27.608Z,13.70
2024-02-28T06:53:25.235Z,13.38
2024-02-28T06:54:22.824Z,13.57
2024-02-28T06:55:20.026Z,14.50
2024-02-28T06:56:17.280Z,14.13
2024-02-28T06:57:14.529Z,14.68
2024-02-28T06:58:11.863Z,14.80
2024-02-28T06:59:09.084Z,14.85
2024-02-28T07:00:10.810Z,15.65
2024-02-28T07:01:08.093Z,14.25
2024-02-28T07:02:06.436Z,14.90
2024-02-28T07:03:03.661Z,15.40
2024-02-28T07:04:01.210Z,14.60
2024-02-28T07:04:58.284Z,15.45
2024-02-28T07:05:56.317Z,14.77
2024-02-28T07:06:53.750Z,15.15
2024-02-28T07:07:51.355Z,15.32
2024-02-28T07:08:48.674Z,16.20
2024-02-28T07:09:45.965Z,15.32
2024-02-28T07:10:44.963Z,16.05
2024-02-28T07:11:42.418Z,16.52
2024-02-28T07:12:39.591Z,15.40
2024-02-28T07:13:37.505Z,16.10
2024-02-28T07:14:34.914Z,16.30
2024-02-28T07:15:32.277Z,16.60
2024-02-28T07:16:36.119Z,16.20
2024-02-28T07:17:33.632Z,16.98
2024-02-28T07:18:32.421Z,16.48
2024-02-28T07:19:29.826Z,16.45
2024-02-28T07:20:27.859Z,16.80
2024-02-28T07:21:25.012Z,17.67
2024-02-28T07:22:22.665Z,16.20
2024-02-28T07:23:19.796Z,17.05
2024-02-28T07:24:17.092Z,16.75
2024-02-28T07:25:14.653Z,16.35
2024-02-28T07:26:26.727Z,15.80
2024-02-28T07:27:27.803Z,15.93
2024-02-28T07:28:25.020Z,16.35
2024-02-28T07:29:22.522Z,16.67
2024-02-28T07:30:23.188Z,16.90
2024-02-28T07:31:21.213Z,16.30
2024-02-28T07:32:18.514Z,16.77
2024-02-28T07:33:16.097Z,14.35
2024-02-28T07:34:13.377Z,15.60
2024-02-28T07:35:10.423Z,17.08
2024-02-28T07:36:08.076Z,16.52
2024-02-28T07:37:05.625Z,15.90
2024-02-28T07:38:02.979Z,13.95
2024-02-28T07:39:00.249Z,15.32
2024-02-28T07:39:57.350Z,14.75
2024-02-28T07:40:54.644Z,15.35
2024-02-28T07:41:55.835Z,15.88
2024-02-28T07:42:57.799Z,16.73
2024-02-28T07:43:55.540Z,16.98
2024-02-28T07:44:55.038Z,15.13
2024-02-28T07:45:52.453Z,17.23
2024-02-28T07:46:52.351Z,16.90
2024-02-28T07:47:49.709Z,17.83
2024-02-28T07:48:46.934Z,16.23
2024-02-28T07:49:45.165Z,19.67
2024-02-28T07:50:43.351Z,18.73
2024-02-28T07:51:42.017Z,19.83
2024-02-28T07:52:39.237Z,18.77
2024-02-28T07:53:37.642Z,20.20
2024-02-28T07:54:35.205Z,20.45
2024-02-28T07:55:32.522Z,19.35
2024-02-28T07:56:30.880Z,21.10
2024-02-28T07:57:28.110Z,20.23
2024-02-28T07:58:25.357Z,22.27
2024-02-28T07:59:22.729Z,20.12
2024-02-28T08:00:21.603Z,20.23
2024-02-28T08:01:18.915Z,21.12
2024-02-28T08:02:16.304Z,22.67
2024-02-28T08:03:13.651Z,20.58
2024-02-28T08:04:10.870Z,20.35
2024-02-28T08:05:09.153Z,20.95
2024-02-28T08:06:06.509Z,20.70
2024-02-28T08:07:04.768Z,21.10
2024-02-28T08:08:02.808Z,20.88
2024-02-28T08:09:00.451Z,21.95
2024-02-28T08:10:30.623Z,21.33
2024-02-28T08:11:27.961Z,20.45
2024-02-28T08:12:25.061Z,22.05
2024-02-28T08:13:22.312Z,21.85
2024-02-28T08:14:19.446Z,21.90
2024-02-28T08:15:17.585Z,21.67
2024-02-28T08:16:14.865Z,23.55
2024-02-28T08:17:12.156Z,22.65
2024-02-28T08:18:09.307Z,21.37
2024-02-28T08:19:06.417Z,21.48
2024-02-28T08:20:04.382Z,20.98
2024-02-28T08:21:03.415Z,21.95
2024-02-28T08:22:00.567Z,23.50
2024-02-28T08:22:59.701Z,23.02
2024-02-28T08:23:56.944Z,22.75
2024-02-28T08:24:54.269Z,22.23
2024-02-28T08:25:51.514Z,21.87
2024-02-28T08:26:48.771Z,21.55
2024-02-28T08:27:45.921Z,22.87
2024-02-28T08:28:43.162Z,22.27
2024-02-28T08:29:45.294Z,20.75
2024-02-28T08:30:42.515Z,22.30
2024-02-28T08:31:43.318Z,21.17
2024-02-28T08:32:40.487Z,21.15
2024-02-28T08:33:37.669Z,21.75
2024-02-28T08:34:35.000Z,23.80
2024-02-28T08:35:32.356Z,25.02
2024-02-28T08:36:29.441Z,28.92
2024-02-28T08:37:28.889Z,29.58
2024-02-28T08:38:26.071Z,31.33
2024-02-28T08:39:24.864Z,29.27
2024-02-28T08:40:22.080Z,29.10
2024-02-28T08:41:19.866Z,27.37
2024-02-28T08:42:16.974Z,27.55
2024-02-28T08:43:14.197Z,27.15
2024-02-28T08:44:11.263Z,27.75
2024-02-28T08:45:09.336Z,32.20
2024-02-28T08:46:06.612Z,31.20
2024-02-28T08:47:03.930Z,30.50
2024-02-28T08:48:02.855Z,28.92
2024-02-28T08:49:00.259Z,26.60
2024-02-28T08:49:57.451Z,25.27
2024-02-28T08:50:54.711Z,24.70
2024-02-28T08:51:51.861Z,23.92
2024-02-28T08:52:49.106Z,24.05
2024-02-28T08:53:46.294Z,22.30
2024-02-28T08:54:43.367Z,23.40
2024-02-28T08:55:40.517Z,25.77
2024-02-28T08:56:39.879Z,25.55
2024-02-28T08:57:38.939Z,27.05
2024-02-28T08:58:36.115Z,27.73
2024-02-28T08:59:33.333Z,27.87
2024-02-28T09:00:30.547Z,27.17
2024-02-28T09:01:27.786Z,25.00
2024-02-28T09:02:24.907Z,22.40
2024-02-28T09:03:23.956Z,24.45
2024-02-28T09:04:21.261Z,23.70
2024-02-28T09:05:18.359Z,21.40
2024-02-28T09:06:15.882Z,22.08
2024-02-28T09:07:13.229Z,23.05
2024-02-28T09:08:13.026Z,21.75
2024-02-28T09:09:11.403Z,23.77
2024-02-28T09:10:09.456Z,23.60
2024-02-28T09:11:07.573Z,22.23
2024-02-28T09:12:05.088Z,23.12
2024-02-28T09:13:02.201Z,23.20
2024-02-28T09:14:00.469Z,22.55
2024-02-28T09:14:59.049Z,22.05
2024-02-28T09:15:56.237Z,22.15
2024-02-28T09:16:53.413Z,23.20
2024-02-28T09:17:50.545Z,21.90
2024-02-28T09:18:47.715Z,22.25
2024-02-28T09:19:44.877Z,23.70
2024-02-28T09:20:42.127Z,21.58
2024-02-28T09:21:39.290Z,23.85
2024-02-28T09:22:36.430Z,24.00
2024-02-28T09:23:33.595Z,25.35
2024-02-28T09:24:30.736Z,22.65
2024-02-28T09:25:29.283Z,22.23
2024-02-28T09:26:26.969Z,21.33
2024-02-28T09:27:24.140Z,24.75
2024-02-28T09:28:21.347Z,24.70
2024-02-28T09:29:18.397Z,22.50
2024-02-28T09:30:15.866Z,19.85
2024-02-28T09:31:12.991Z,20.65
2024-02-28T09:32:10.524Z,21.55
2024-02-28T09:33:07.827Z,18.98
2024-02-28T09:34:09.006Z,18.50
2024-02-28T09:35:06.499Z,20.20
2024-02-28T09:36:04.670Z,19.80
2024-02-28T09:37:02.141Z,20.30
2024-02-28T09:37:59.396Z,19.98
2024-02-28T09:38:56.608Z,20.25
2024-02-28T09:39:54.684Z,21.23
2024-02-28T09:40:52.108Z,20.85
2024-02-28T09:41:50.958Z,19.50
2024-02-28T09:42:59.361Z,20.10
2024-02-28T09:43:57.289Z,21.65
2024-02-28T09:44:55.325Z,20.48
2024-02-28T09:45:52.431Z,19.50
2024-02-28T09:46:53.273Z,20.50
2024-02-28T09:47:50.792Z,21.87
2024-02-28T09:48:50.064Z,22.33
2024-02-28T09:49:50.777Z,24.63
2024-02-28T09:51:44.970Z,24.90
2024-02-28T09:53:39.228Z,26.40
2024-02-28T09:54:36.738Z,22.90
2024-02-28T09:55:34.042Z,19.83
2024-02-28T09:56:31.460Z,19.67
2024-02-28T09:57:30.227Z,19.48
2024-02-28T09:58:28.246Z,19.48
2024-02-28T09:59:32.301Z,20.95
2024-02-28T10:00:37.751Z,18.85
2024-02-28T10:01:39.390Z,19.50
2024-02-28T10:02:39.234Z,17.55
2024-02-28T10:03:37.386Z,18.20
2024-02-28T10:04:34.841Z,17.85
2024-02-28T10:05:32.557Z,18.52
2024-02-28T10:06:29.748Z,19.35
2024-02-28T10:07:26.942Z,21.33
2024-02-28T10:08:24.830Z,21.80
2024-02-28T10:09:22.053Z,19.87
2024-02-28T10:10:19.295Z,20.37
2024-02-28T10:11:22.497Z,21.02
2024-02-28T10:12:20.583Z,20.77
2024-02-28T10:13:17.795Z,20.98
2024-02-28T10:14:21.516Z,20.50
2024-02-28T10:15:19.008Z,20.73
2024-02-28T10:16:19.742Z,20.02
2024-02-28T10:17:16.877Z,18.90
2024-02-28T10:18:14.229Z,19.35
2024-02-28T10:19:11.892Z,21.23
2024-02-28T10:20:10.882Z,19.45
2024-02-28T10:21:08.204Z,18.67
2024-02-28T10:22:05.860Z,17.83
2024-02-28T10:23:07.870Z,20.12
2024-02-28T10:24:06.555Z,19.58
2024-02-28T10:25:05.598Z,19.05
2024-02-28T10:26:03.756Z,18.77
2024-02-28T10:27:02.835Z,19.00
2024-02-28T10:28:03.431Z,18.92
2024-02-28T10:29:57.606Z,18.33
2024-02-28T10:30:55.654Z,20.12
2024-02-28T10:31:53.695Z,19.05
2024-02-28T10:32:54.218Z,19.77
2024-02-28T10:33:51.514Z,19.48
2024-02-28T10:34:48.668Z,20.05
2024-02-28T10:35:46.374Z,21.52
2024-02-28T10:36:45.412Z,20.40
2024-02-28T10:37:42.550Z,21.25
2024-02-28T10:38:39.910Z,21.30
2024-02-28T10:39:37.716Z,21.23
2024-02-28T10:40:34.782Z,21.00
2024-02-28T10:41:32.600Z,20.20
2024-02-28T10:42:31.852Z,19.73
2024-02-28T10:43:31.309Z,20.33
2024-02-28T10:44:29.325Z,20.48
2024-02-28T10:45:41.963Z,21.00
2024-02-28T10:46:45.983Z,19.70
2024-02-28T10:47:43.178Z,19.58
2024-02-28T10:48:40.603Z,20.35
2024-02-28T10:49:37.939Z,20.02
2024-02-28T10:50:35.034Z,21.40
2024-02-28T10:51:40.096Z,21.27
2024-02-28T10:52:40.878Z,21.10
2024-02-28T10:53:43.431Z,20.20
2024-02-28T10:54:45.324Z,21.20
2024-02-28T10:55:43.014Z,20.45
2024-02-28T10:56:41.145Z,21.55
2024-02-28T10:57:39.009Z,22.73
2024-02-28T10:58:38.385Z,21.52
2024-02-28T10:59:36.980Z,20.90
2024-02-28T11:00:40.270Z,22.00
2024-02-28T11:01:45.681Z,22.92
2024-02-28T11:02:44.828Z,22.23
2024-02-28T11:03:42.090Z,21.52
2024-02-28T11:04:39.402Z,22.52
2024-02-28T11:05:40.688Z,21.67
2024-02-28T11:06:50.022Z,22.65
2024-02-28T11:07:48.606Z,23.42
2024-02-28T11:08:49.237Z,22.08
2024-02-28T11:09:48.122Z,23.42
2024-02-28T11:10:51.888Z,22.15
2024-02-28T11:11:50.876Z,22.85
2024-02-28T11:12:56.233Z,22.17
2024-02-28T11:13:57.425Z,21.98
2024-02-28T11:15:06.877Z,23.48
2024-02-28T11:16:11.359Z,22.25
2024-02-28T11:17:08.958Z,23.02
2024-02-28T11:18:12.550Z,23.00
2024-02-28T11:19:10.056Z,21.80
2024-02-28T11:20:14.441Z,23.17
2024-02-28T11:21:18.372Z,21.42
2024-02-28T11:22:19.847Z,22.15
2024-02-28T11:23:19.066Z,22.85
2024-02-28T11:24:16.187Z,22.23
2024-02-28T11:25:13.338Z,22.35
2024-02-28T11:26:10.555Z,22.50
2024-02-28T11:27:08.170Z,23.02
2024-02-28T11:28:06.137Z,20.75
2024-02-28T11:29:03.357Z,21.73
2024-02-28T11:30:01.721Z,22.15
2024-02-28T11:30:58.980Z,20.95
2024-02-28T11:31:56.304Z,21.60
2024-02-28T11:32:56.004Z,20.33
2024-02-28T11:33:54.198Z,22.83
2024-02-28T11:34:52.841Z,21.60
2024-02-28T11:36:00.664Z,22.15
2024-02-28T11:37:00.266Z,24.67
2024-02-28T11:37:58.604Z,24.15
2024-02-28T11:38:59.212Z,21.52
2024-02-28T11:39:57.108Z,24.92
2024-02-28T11:40:55.257Z,24.08
2024-02-28T11:41:52.297Z,24.33
2024-02-28T11:42:50.499Z,25.05
2024-02-28T11:43:52.125Z,24.50
2024-02-28T11:45:01.488Z,24.50
2024-02-28T11:46:02.820Z,24.65
2024-02-28T11:47:57.782Z,23.20
2024-02-28T11:48:57.207Z,25.12
2024-02-28T11:49:54.380Z,24.00
2024-02-28T11:50:52.570Z,24.48
2024-02-28T11:51:49.900Z,26.77
2024-02-28T11:52:47.572Z,24.67
2024-02-28T11:53:44.761Z,24.63
2024-02-28T11:54:42.049Z,25.23
2024-02-28T11:55:39.639Z,25.77
2024-02-28T11:56:36.675Z,25.70
2024-02-28T11:57:35.318Z,24.92
2024-02-28T11:58:32.537Z,26.00
2024-02-28T11:59:29.586Z,25.50
2024-02-28T12:00:27.121Z,25.02
2024-02-28T12:01:38.006Z,25.58
2024-02-28T12:02:35.177Z,25.75
2024-02-28T12:03:32.349Z,26.62
2024-02-28T12:04:29.507Z,24.45
2024-02-28T12:05:26.504Z,25.60
2024-02-28T12:06:23.569Z,26.12
2024-02-28T12:07:20.594Z,25.40
2024-02-28T12:08:21.426Z,25.25
2024-02-28T12:09:25.151Z,26.65
2024-02-28T12:10:27.004Z,25.00
2024-02-28T12:11:26.251Z,28.92
2024-02-28T12:12:23.505Z,28.23
2024-02-28T12:13:21.116Z,27.52
2024-02-28T12:14:18.618Z,28.38
2024-02-28T12:15:16.882Z,27.73
2024-02-28T12:16:13.960Z,27.35
2024-02-28T12:17:11.795Z,28.27
2024-02-28T12:18:11.479Z,29.25
2024-02-28T12:19:12.899Z,28.77
2024-02-28T12:20:10.652Z,25.80
2024-02-28T12:21:07.729Z,27.37
2024-02-28T12:22:05.825Z,27.70
2024-02-28T12:23:02.983Z,25.73
2024-02-28T12:24:00.279Z,26.90
2024-02-28T12:24:57.424Z,25.90
2024-02-28T12:25:54.807Z,29.20
2024-02-28T12:26:51.958Z,26.55
2024-02-28T12:27:49.185Z,27.23
2024-02-28T12:28:47.029Z,28.65
2024-02-28T12:29:44.199Z,28.48
2024-02-28T12:30:45.432Z,27.70
2024-02-28T12:31:42.626Z,27.98
2024-02-28T12:32:39.683Z,29.25
2024-02-28T12:33:37.108Z,28.12
2024-02-28T12:34:34.292Z,28.45
2024-02-28T12:35:31.284Z,29.33